Time;durP1;ratioP1;P1;durP2;ratioP2;P2;SDS_P1;SDS_P2;PMS_P1;PMS_P2;Temp;Humidity;BMP_temperature;BMP_pressure;BME280_temperature;BME280_humidity;BME280_pressure;Samples;Min_cycle;Max_cycle;Signal;HPM_P1;HPM_P2
2023/11/18 06:01:00;;;;;;;5.60;3.70;;;6.40;87.10;;;;;;4602101;23;20529;-81
2023/11/18 06:03:02;;;;;;;7.22;3.80;;;6.40;87.20;;;;;;4051841;29;20506;-78
2023/11/18 06:05:05;;;;;;;5.97;4.00;;;6.50;87.00;;;;;;4052888;29;20459;-77
2023/11/18 06:07:07;;;;;;;5.40;3.50;;;6.50;86.80;;;;;;4054982;29;20055;-79
2023/11/18 06:09:17;;;;;;;6.53;3.83;;;6.50;86.70;;;;;;4055058;29;20065;-80
2023/11/18 06:11:20;;;;;;;5.07;3.20;;;6.50;86.80;;;;;;4054218;29;20052;-82
2023/11/18 06:13:21;;;;;;;6.20;3.88;;;6.50;86.70;;;;;;4054755;29;20049;-77
2023/11/18 06:15:23;;;;;;;6.82;4.15;;;6.50;86.90;;;;;;4054971;29;20077;-77
2023/11/18 06:17:27;;;;;;;5.68;3.83;;;6.50;86.90;;;;;;4054986;29;20052;-79
2023/11/18 06:19:29;;;;;;;5.78;3.60;;;6.50;87.50;;;;;;4055005;29;20517;-80
2023/11/18 06:21:31;;;;;;;6.45;3.30;;;6.50;87.30;;;;;;4054920;29;20048;-77
2023/11/18 06:23:33;;;;;;;5.00;3.03;;;6.50;87.20;;;;;;4020544;29;20091;-82
2023/11/18 06:25:35;;;;;;;5.53;3.08;;;6.60;86.60;;;;;;4054511;29;20124;-81
2023/11/18 06:27:36;;;;;;;5.57;3.20;;;6.60;86.60;;;;;;4054362;29;20052;-82
2023/11/18 06:29:39;;;;;;;5.13;3.35;;;6.60;86.40;;;;;;4055461;29;20112;-80
2023/11/18 06:31:41;;;;;;;4.45;2.83;;;6.60;86.30;;;;;;4055118;29;20049;-81
2023/11/18 06:33:47;;;;;;;6.05;3.15;;;6.60;86.40;;;;;;4038447;29;20049;-86
2023/11/18 06:35:48;;;;;;;5.38;3.17;;;6.60;86.30;;;;;;4053073;29;20132;-83
2023/11/18 06:37:50;;;;;;;5.07;3.10;;;6.50;86.30;;;;;;4054447;29;20044;-84
2023/11/18 06:39:52;;;;;;;4.65;2.95;;;6.50;86.40;;;;;;4055660;29;20116;-84
2023/11/18 06:41:54;;;;;;;5.82;2.90;;;6.50;86.40;;;;;;4054405;29;20128;-79
2023/11/18 06:44:00;;;;;;;5.90;3.13;;;6.60;87.40;;;;;;4053812;29;20130;-84
2023/11/18 06:46:01;;;;;;;4.82;3.00;;;6.60;87.20;;;;;;4055418;29;20066;-82
2023/11/18 06:48:05;;;;;;;4.60;3.03;;;6.60;86.30;;;;;;4064624;29;20072;-84
2023/11/18 06:50:11;;;;;;;6.35;3.00;;;6.60;86.30;;;;;;4062916;29;20052;-84
2023/11/18 06:52:13;;;;;;;4.78;2.97;;;6.60;86.40;;;;;;4050812;29;20048;-85
2023/11/18 06:54:15;;;;;;;6.13;2.80;;;6.60;86.30;;;;;;4054998;29;20543;-84
2023/11/18 06:56:15;;;;;;;5.45;2.90;;;6.60;86.20;;;;;;4054010;29;20048;-86
2023/11/18 06:58:18;;;;;;;4.65;2.83;;;6.60;86.30;;;;;;4044231;29;20053;-85
2023/11/18 07:00:21;;;;;;;4.82;2.55;;;6.60;86.10;;;;;;4028134;29;20484;-85
2023/11/18 07:02:23;;;;;;;4.60;2.70;;;6.60;86.00;;;;;;4097239;29;20059;-85
2023/11/18 07:04:25;;;;;;;6.32;2.80;;;6.60;86.30;;;;;;4087840;29;20051;-85
2023/11/18 07:06:29;;;;;;;4.75;2.75;;;6.60;86.00;;;;;;4086257;29;20111;-83
2023/11/18 07:08:31;;;;;;;4.80;2.85;;;6.60;86.20;;;;;;4086697;29;20047;-87
2023/11/18 07:10:32;;;;;;;5.50;2.85;;;6.60;85.90;;;;;;4088527;29;20063;-86
2023/11/18 07:12:33;;;;;;;4.65;2.60;;;6.60;85.90;;;;;;4087042;29;20055;-87
2023/11/18 07:14:35;;;;;;;5.70;3.33;;;6.60;85.80;;;;;;4086927;29;20088;-87
2023/11/18 07:16:39;;;;;;;5.40;3.03;;;6.60;85.80;;;;;;4086849;29;20482;-87
2023/11/18 07:18:42;;;;;;;6.38;3.10;;;6.60;85.80;;;;;;4087867;29;20079;-88
2023/11/18 07:20:43;;;;;;;5.53;3.33;;;6.60;85.90;;;;;;4086890;29;20434;-82
2023/11/18 07:22:46;;;;;;;4.45;3.03;;;6.60;85.90;;;;;;4084311;29;20159;-84
2023/11/18 07:24:48;;;;;;;5.07;3.17;;;6.60;85.80;;;;;;4087247;29;20101;-82
2023/11/18 07:26:50;;;;;;;5.40;3.38;;;6.60;85.70;;;;;;4090230;29;20055;-82
2023/11/18 07:28:52;;;;;;;5.97;3.50;;;6.60;85.80;;;;;;4089415;29;20473;-81
2023/11/18 07:30:54;;;;;;;6.30;3.25;;;6.60;86.10;;;;;;4083623;29;20071;-81
2023/11/18 07:33:01;;;;;;;5.90;3.30;;;6.60;86.80;;;;;;4085581;29;20051;-79
2023/11/18 07:35:03;;;;;;;6.18;3.40;;;6.60;86.00;;;;;;4090759;29;20080;-78
2023/11/18 07:37:05;;;;;;;4.70;3.05;;;6.60;85.90;;;;;;4091555;29;20103;-80
2023/11/18 07:39:15;;;;;;;6.82;3.90;;;6.60;86.00;;;;;;4093065;29;20043;-79
2023/11/18 07:41:24;;;;;;;5.57;3.50;;;6.60;86.10;;;;;;4085609;29;20078;-82
2023/11/18 07:43:28;;;;;;;5.93;3.25;;;6.70;86.40;;;;;;4084082;29;20071;-80
2023/11/18 07:45:37;;;;;;;13.57;7.13;;;6.70;86.30;;;;;;4089106;29;20056;-81
2023/11/18 07:47:39;;;;;;;5.78;3.85;;;6.70;86.30;;;;;;4088498;29;20063;-81
2023/11/18 07:49:41;;;;;;;7.75;4.82;;;6.70;86.20;;;;;;4087327;29;20059;-83
2023/11/18 07:51:43;;;;;;;6.47;3.70;;;6.70;86.00;;;;;;4086499;29;20127;-79
2023/11/18 07:53:45;;;;;;;5.20;3.33;;;6.70;85.70;;;;;;4085195;29;20548;-80
2023/11/18 07:55:50;;;;;;;6.93;3.75;;;6.80;85.70;;;;;;4085256;29;20503;-79
2023/11/18 07:57:52;;;;;;;4.85;3.10;;;6.80;85.90;;;;;;4084862;29;20048;-77
2023/11/18 07:59:54;;;;;;;5.97;3.22;;;6.80;85.90;;;;;;4086316;29;20094;-85
2023/11/18 08:01:56;;;;;;;7.93;5.00;;;6.90;85.70;;;;;;4085404;29;20134;-81
2023/11/18 08:03:58;;;;;;;10.60;6.05;;;6.90;85.90;;;;;;4085489;29;20051;-83
2023/11/18 08:06:01;;;;;;;8.00;4.85;;;6.90;86.00;;;;;;4085331;29;20118;-80
2023/11/18 08:08:03;;;;;;;11.90;6.80;;;6.90;86.30;;;;;;4083150;29;20151;-80
2023/11/18 08:10:12;;;;;;;8.38;4.32;;;6.90;86.20;;;;;;4084757;29;20051;-80
2023/11/18 08:12:15;;;;;;;7.35;3.78;;;6.90;85.70;;;;;;4084463;29;20075;-80
2023/11/18 08:14:17;;;;;;;4.70;2.92;;;7.00;85.60;;;;;;4084869;29;20047;-81
2023/11/18 08:16:18;;;;;;;5.13;3.25;;;7.00;85.50;;;;;;4083886;29;20100;-81
2023/11/18 08:18:21;;;;;;;6.80;3.40;;;7.10;85.30;;;;;;4084787;29;20126;-81
2023/11/18 08:20:25;;;;;;;9.80;3.85;;;7.10;85.10;;;;;;4084653;29;20051;-80
2023/11/18 08:22:27;;;;;;;6.75;3.00;;;7.10;85.10;;;;;;4084277;29;20056;-77
2023/11/18 08:24:29;;;;;;;7.00;3.20;;;7.20;85.30;;;;;;4084309;29;20359;-77
2023/11/18 08:26:31;;;;;;;7.43;3.30;;;7.20;85.20;;;;;;4083368;29;20454;-78
2023/11/18 08:28:35;;;;;;;9.43;3.50;;;7.30;85.50;;;;;;4068420;29;20052;-79
2023/11/18 08:30:39;;;;;;;8.30;3.47;;;7.30;85.10;;;;;;4068686;29;20308;-80
2023/11/18 08:32:43;;;;;;;6.80;3.50;;;7.30;84.90;;;;;;4081919;29;20548;-80
2023/11/18 08:34:44;;;;;;;10.85;4.40;;;7.40;85.10;;;;;;4085766;29;20156;-84
2023/11/18 08:36:46;;;;;;;7.18;3.85;;;7.40;85.40;;;;;;4087249;29;20489;-78
2023/11/18 08:38:47;;;;;;;6.63;3.67;;;7.40;85.20;;;;;;4087466;29;20096;-75
2023/11/18 08:40:51;;;;;;;4.57;2.97;;;7.50;85.60;;;;;;4083759;29;20489;-78
2023/11/18 08:42:55;;;;;;;5.28;3.00;;;7.50;85.00;;;;;;4073574;29;20104;-79
2023/11/18 08:44:59;;;;;;;5.32;3.20;;;7.50;84.30;;;;;;4084128;29;20417;-79
2023/11/18 08:47:05;;;;;;;4.78;3.10;;;7.50;84.30;;;;;;4088030;29;20044;-79
2023/11/18 08:49:10;;;;;;;6.05;3.25;;;7.50;84.00;;;;;;4086500;29;20138;-79
2023/11/18 08:51:13;;;;;;;5.85;3.10;;;7.50;84.20;;;;;;4083385;29;20044;-79
2023/11/18 08:53:18;;;;;;;4.57;2.65;;;7.60;84.20;;;;;;4079134;29;20048;-80
2023/11/18 08:55:20;;;;;;;5.57;3.20;;;7.60;83.90;;;;;;4076616;29;20086;-79
2023/11/18 08:57:25;;;;;;;4.55;2.92;;;7.60;83.90;;;;;;4082255;29;20055;-78
2023/11/18 08:59:27;;;;;;;6.57;3.90;;;7.60;84.20;;;;;;4072993;29;20059;-77
2023/11/18 09:01:31;;;;;;;6.20;4.40;;;7.60;84.60;;;;;;4069046;29;20078;-78
2023/11/18 09:03:35;;;;;;;5.82;3.58;;;7.60;85.70;;;;;;4079428;29;20052;-77
2023/11/18 09:05:36;;;;;;;6.22;3.50;;;7.60;85.40;;;;;;4084644;29;20060;-79
2023/11/18 09:07:37;;;;;;;7.60;3.38;;;7.70;84.60;;;;;;4084046;29;20062;-78
2023/11/18 09:09:39;;;;;;;6.45;3.80;;;7.70;84.20;;;;;;4082242;29;20099;-77
2023/11/18 09:11:42;;;;;;;5.40;3.58;;;7.80;84.30;;;;;;4053209;29;20584;-80
2023/11/18 09:13:47;;;;;;;5.93;3.10;;;7.90;84.10;;;;;;4082615;29;20107;-80
2023/11/18 09:15:48;;;;;;;5.72;3.45;;;7.90;84.50;;;;;;4084231;29;20043;-81
2023/11/18 09:17:52;;;;;;;6.35;2.72;;;7.90;83.70;;;;;;4084086;29;20059;-76
2023/11/18 09:19:56;;;;;;;6.65;3.25;;;7.90;82.80;;;;;;4084682;29;20135;-78
2023/11/18 09:21:58;;;;;;;5.60;3.38;;;8.00;82.70;;;;;;4084625;29;20063;-79
2023/11/18 09:23:59;;;;;;;5.18;3.47;;;8.00;81.50;;;;;;4083840;29;20386;-76
2023/11/18 09:26:02;;;;;;;5.05;2.70;;;8.00;81.80;;;;;;4084532;29;20062;-74
2023/11/18 09:28:05;;;;;;;5.35;2.90;;;8.00;82.10;;;;;;4083785;29;20139;-76
2023/11/18 09:30:13;;;;;;;6.22;3.10;;;8.00;81.90;;;;;;4083246;29;20162;-77
2023/11/18 09:32:15;;;;;;;5.78;3.00;;;8.10;82.20;;;;;;4084493;29;20098;-76
2023/11/18 09:34:26;;;;;;;4.80;2.90;;;8.10;82.00;;;;;;4084509;29;20645;-78
2023/11/18 09:36:29;;;;;;;5.72;2.70;;;8.20;81.80;;;;;;4085113;29;20524;-78
2023/11/18 09:38:32;;;;;;;5.35;3.15;;;8.20;81.80;;;;;;4074209;29;20075;-80
2023/11/18 09:40:41;;;;;;;6.97;2.92;;;8.30;81.70;;;;;;4068530;29;20153;-78
2023/11/18 09:42:44;;;;;;;8.40;3.05;;;8.30;81.80;;;;;;4085095;29;20135;-79
2023/11/18 09:44:48;;;;;;;5.90;3.00;;;8.30;81.10;;;;;;4094379;29;20450;-79
2023/11/18 09:47:03;;;;;;;5.72;2.80;;;8.30;81.10;;;;;;4093478;29;20062;-81
2023/11/18 09:49:25;;;;;;;6.25;2.80;;;8.40;81.20;;;;;;4087320;29;20051;-79
2023/11/18 09:51:30;;;;;;;5.28;3.00;;;8.40;80.90;;;;;;4084671;29;20079;-78
2023/11/18 09:53:37;;;;;;;5.25;2.97;;;8.40;80.80;;;;;;4083117;29;20705;-77
2023/11/18 09:55:55;;;;;;;6.57;3.05;;;8.40;81.20;;;;;;4084322;29;20052;-80
2023/11/18 09:58:06;;;;;;;4.30;2.90;;;8.50;80.90;;;;;;4084661;29;20063;-78
2023/11/18 10:00:19;;;;;;;6.90;3.28;;;8.50;80.50;;;;;;4083108;29;20094;-79
2023/11/18 10:02:23;;;;;;;5.82;3.03;;;8.60;80.50;;;;;;4087770;29;20056;-78
2023/11/18 10:04:27;;;;;;;5.28;3.10;;;8.60;80.10;;;;;;4088047;29;20059;-77
2023/11/18 10:06:33;;;;;;;5.13;2.65;;;8.60;79.80;;;;;;4089031;29;20071;-78
2023/11/18 10:08:37;;;;;;;6.85;3.17;;;8.70;79.80;;;;;;4084562;29;20454;-78
2023/11/18 10:10:45;;;;;;;5.03;3.03;;;8.70;80.00;;;;;;4084269;29;20120;-79
2023/11/18 10:12:51;;;;;;;5.65;2.70;;;8.80;79.70;;;;;;4085377;29;20091;-80
2023/11/18 10:14:56;;;;;;;4.75;2.75;;;8.80;79.30;;;;;;4084109;29;20056;-80
2023/11/18 10:16:57;;;;;;;8.48;3.17;;;8.90;78.90;;;;;;4083423;29;20107;-76
2023/11/18 10:19:00;;;;;;;8.48;3.42;;;9.00;79.00;;;;;;4083385;29;20465;-77
2023/11/18 10:21:07;;;;;;;10.35;3.33;;;8.90;79.10;;;;;;4083941;29;20055;-81
2023/11/18 10:23:10;;;;;;;8.88;3.13;;;9.00;80.00;;;;;;4082041;29;20043;-79
2023/11/18 10:25:25;;;;;;;13.57;3.60;;;9.00;80.30;;;;;;4082974;29;20094;-79
2023/11/18 10:27:28;;;;;;;10.75;3.72;;;9.00;81.40;;;;;;4083610;29;20065;-79
2023/11/18 10:29:30;;;;;;;9.75;3.63;;;9.10;80.80;;;;;;4084256;29;20468;-78
2023/11/18 10:31:35;;;;;;;6.85;3.15;;;9.10;80.20;;;;;;4084505;29;20087;-77
2023/11/18 10:33:41;;;;;;;6.80;3.22;;;9.10;80.50;;;;;;4084452;29;20055;-79
2023/11/18 10:35:52;;;;;;;10.63;3.20;;;9.20;79.60;;;;;;4084538;29;20055;-78
2023/11/18 10:37:55;;;;;;;8.70;3.08;;;9.20;79.60;;;;;;4084678;29;20070;-79
2023/11/18 10:39:57;;;;;;;14.02;3.92;;;9.20;79.50;;;;;;4085574;29;20108;-78
2023/11/18 10:42:00;;;;;;;7.10;2.85;;;9.30;79.90;;;;;;4086022;29;20175;-79
2023/11/18 10:44:13;;;;;;;6.45;3.22;;;9.30;79.20;;;;;;4085984;29;20054;-78
2023/11/18 10:46:19;;;;;;;8.63;3.60;;;9.40;78.70;;;;;;4085824;29;20103;-79
2023/11/18 10:48:22;;;;;;;;;;;9.40;78.50;;;;;;4086416;29;20572;-79
2023/11/18 10:50:22;;;;;;;8.10;4.13;;;9.40;79.00;;;;;;4085727;29;19922;-78
2023/11/18 10:52:30;;;;;;;13.77;4.70;;;9.40;78.40;;;;;;4085939;29;20054;-76
2023/11/18 10:54:34;;;;;;;9.73;3.97;;;9.20;80.40;;;;;;4086190;29;20482;-80
2023/11/18 10:56:35;;;;;;;8.75;3.75;;;9.30;80.10;;;;;;4075487;29;20158;-79
2023/11/18 10:58:40;;;;;;;8.82;3.85;;;9.40;78.20;;;;;;4069343;29;20052;-78
2023/11/18 11:00:49;;;;;;;;;;;9.40;77.70;;;;;;4073006;29;20158;-78
2023/11/18 11:02:59;;;;;;;7.38;3.55;;;9.50;77.20;;;;;;4085224;29;20329;-79
2023/11/18 11:05:00;;;;;;;6.72;3.42;;;9.50;77.40;;;;;;4085280;29;20047;-78
2023/11/18 11:07:03;;;;;;;10.27;3.67;;;9.60;77.70;;;;;;4085465;29;20063;-79
2023/11/18 11:09:09;;;;;;;10.65;3.65;;;9.50;77.80;;;;;;4085544;29;20499;-78
2023/11/18 11:11:16;;;;;;;9.57;4.18;;;9.50;78.90;;;;;;4085333;29;20051;-77
2023/11/18 11:13:19;;;;;;;11.27;4.18;;;9.40;78.40;;;;;;4086600;29;20043;-79
2023/11/18 11:15:25;;;;;;;15.52;4.30;;;9.50;79.10;;;;;;4085608;29;20055;-77
2023/11/18 11:17:30;;;;;;;6.60;3.35;;;9.40;79.00;;;;;;4085836;29;20048;-79
2023/11/18 11:19:44;;;;;;;5.63;3.42;;;9.50;78.70;;;;;;4085741;29;20052;-79
2023/11/18 11:21:54;;;;;;;5.80;3.33;;;9.60;77.70;;;;;;4085098;29;20094;-78
2023/11/18 11:24:04;;;;;;;7.43;3.58;;;9.70;77.40;;;;;;4084733;29;20482;-78
2023/11/18 11:26:19;;;;;;;6.45;3.25;;;9.70;77.00;;;;;;4085102;29;20115;-78
2023/11/18 11:28:22;;;;;;;6.40;3.40;;;9.70;77.20;;;;;;4085017;29;20075;-78
2023/11/18 11:30:31;;;;;;;9.60;3.53;;;9.80;77.50;;;;;;4084321;29;20054;-79
2023/11/18 11:32:41;;;;;;;8.23;3.42;;;9.80;77.40;;;;;;4084934;29;20070;-80
2023/11/18 11:34:53;;;;;;;7.78;3.40;;;9.80;77.20;;;;;;4084864;29;20055;-78
2023/11/18 11:36:58;;;;;;;6.28;3.35;;;9.80;77.00;;;;;;4084889;29;20087;-79
2023/11/18 11:39:03;;;;;;;6.95;3.00;;;9.80;76.10;;;;;;4091636;29;20048;-80
2023/11/18 11:41:08;;;;;;;6.75;3.47;;;9.80;75.70;;;;;;4084854;29;20115;-81
2023/11/18 11:43:15;;;;;;;6.60;3.90;;;9.90;76.60;;;;;;4085111;29;20052;-79
2023/11/18 11:45:19;;;;;;;5.15;3.30;;;9.90;76.80;;;;;;4084863;29;20082;-79
2023/11/18 11:47:23;;;;;;;5.70;3.28;;;9.90;77.00;;;;;;4084218;29;20134;-80
2023/11/18 11:49:29;;;;;;;7.07;3.65;;;9.80;76.30;;;;;;4084841;29;20051;-80
2023/11/18 11:51:38;;;;;;;4.75;3.42;;;9.80;75.90;;;;;;4084862;29;20054;-78
2023/11/18 11:53:45;;;;;;;4.63;3.17;;;9.90;76.30;;;;;;4084552;29;20106;-80
2023/11/18 11:55:52;;;;;;;5.38;3.47;;;9.90;76.40;;;;;;4084626;29;20059;-79
2023/11/18 11:57:53;;;;;;;10.00;3.63;;;9.80;76.70;;;;;;4084831;29;20079;-81
2023/11/18 12:00:14;;;;;;;6.53;3.45;;;9.70;76.60;;;;;;4096936;29;20082;-78
2023/11/18 12:02:17;;;;;;;5.55;3.45;;;9.80;77.10;;;;;;4096499;28;20058;-77
2023/11/18 12:04:22;;;;;;;6.38;3.35;;;9.80;76.90;;;;;;4098500;29;20601;-79
2023/11/18 12:06:24;;;;;;;6.20;3.30;;;9.90;77.00;;;;;;4099524;29;20460;-80
2023/11/18 12:08:27;;;;;;;5.03;3.10;;;9.90;77.00;;;;;;4101019;28;20047;-83
2023/11/18 12:10:31;;;;;;;6.43;3.42;;;9.90;77.20;;;;;;4102543;29;20055;-85
2023/11/18 12:12:33;;;;;;;9.20;3.00;;;9.80;77.10;;;;;;4102773;29;20051;-78
2023/11/18 12:14:50;;;;;;;10.13;4.22;;;9.90;78.50;;;;;;4103291;29;20062;-84
2023/11/18 12:17:09;;;;;;;9.15;3.97;;;9.90;78.10;;;;;;4101638;29;20057;-83
2023/11/18 12:19:30;;;;;;;11.02;3.78;;;9.90;77.60;;;;;;4102118;29;20051;-79
2023/11/18 12:21:55;;;;;;;9.50;3.65;;;9.90;78.20;;;;;;4101483;29;20082;-76
2023/11/18 12:24:20;;;;;;;5.68;3.40;;;9.90;77.80;;;;;;4085888;28;20110;-79
2023/11/18 12:26:40;;;;;;;7.80;3.65;;;9.90;77.20;;;;;;4085879;29;20176;-75
2023/11/18 12:28:45;;;;;;;7.03;3.92;;;9.90;77.40;;;;;;4086262;29;20087;-80
2023/11/18 12:30:55;;;;;;;11.35;4.40;;;9.90;77.50;;;;;;4085783;29;20405;-80
2023/11/18 12:33:05;;;;;;;7.80;4.20;;;9.90;78.40;;;;;;4089433;29;20047;-79
2023/11/18 12:35:16;;;;;;;12.57;4.70;;;9.90;78.30;;;;;;4099770;29;20047;-80
2023/11/18 12:38:06;;;;;;;11.05;4.22;;;9.90;78.60;;;;;;4101347;29;20055;-80
2023/11/18 12:40:52;;;;;;;7.40;3.67;;;9.90;78.60;;;;;;4101229;29;20047;-80
2023/11/18 12:43:06;;;;;;;8.02;3.80;;;9.90;78.80;;;;;;4100527;29;20047;-79
2023/11/18 12:45:53;;;;;;;6.95;3.42;;;9.90;78.60;;;;;;4099395;29;20054;-79
2023/11/18 12:47:58;;;;;;;6.57;3.42;;;9.90;78.40;;;;;;4093694;29;20047;-78
2023/11/18 12:50:01;;;;;;;6.93;3.20;;;9.90;78.70;;;;;;4101102;29;20054;-79
2023/11/18 12:52:08;;;;;;;8.15;3.03;;;9.70;77.80;;;;;;4100162;29;20142;-79
2023/11/18 12:54:11;;;;;;;6.28;2.65;;;9.70;76.70;;;;;;4100581;29;20413;-79
2023/11/18 12:56:14;;;;;;;5.10;1.83;;;9.70;75.50;;;;;;4101117;29;20055;-80
2023/11/18 12:58:17;;;;;;;4.65;1.50;;;9.70;74.20;;;;;;4101002;29;20055;-82
2023/11/18 13:00:26;;;;;;;3.22;1.30;;;9.70;74.30;;;;;;4101640;29;20102;-82
2023/11/18 13:02:28;;;;;;;3.92;1.20;;;9.60;72.30;;;;;;4101251;29;20138;-81
2023/11/18 13:04:30;;;;;;;3.88;1.20;;;9.60;73.30;;;;;;4101933;29;20051;-82
2023/11/18 13:06:33;;;;;;;3.15;1.00;;;9.60;73.00;;;;;;4101612;29;20054;-83
2023/11/18 13:08:34;;;;;;;5.60;1.15;;;9.50;71.80;;;;;;4102265;29;20051;-80
2023/11/18 13:10:37;;;;;;;6.50;2.10;;;9.50;72.20;;;;;;4101138;29;20086;-83
2023/11/18 13:12:40;;;;;;;6.63;2.92;;;9.50;72.40;;;;;;4101453;28;20516;-78
2023/11/18 13:14:43;;;;;;;5.03;2.30;;;9.50;72.60;;;;;;4099775;29;20417;-78
2023/11/18 13:16:46;;;;;;;5.93;2.30;;;9.40;72.30;;;;;;4099085;29;20058;-78
2023/11/18 13:18:49;;;;;;;8.27;3.65;;;9.50;72.20;;;;;;4100639;29;20134;-80
2023/11/18 13:20:57;;;;;;;12.88;7.00;;;9.40;72.30;;;;;;4099836;28;20551;-80
2023/11/18 13:23:00;;;;;;;14.20;8.00;;;9.50;72.80;;;;;;4100310;29;20508;-78
2023/11/18 13:25:04;;;;;;;7.63;3.80;;;9.50;72.20;;;;;;4099966;29;20077;-79
2023/11/18 13:27:08;;;;;;;6.75;2.50;;;9.50;72.40;;;;;;4099768;29;20071;-79
2023/11/18 13:29:10;;;;;;;3.80;1.60;;;9.50;72.40;;;;;;4100370;29;20102;-79
2023/11/18 13:31:16;;;;;;;5.10;1.95;;;9.50;72.30;;;;;;4100694;29;20051;-76
2023/11/18 13:33:18;;;;;;;;;;;9.60;72.50;;;;;;4100814;29;20043;-76
2023/11/18 13:35:23;;;;;;;4.65;1.40;;;9.50;72.00;;;;;;4100296;29;19930;-78
2023/11/18 13:37:25;;;;;;;3.28;1.30;;;9.50;71.90;;;;;;4098138;29;20138;-79
2023/11/18 13:39:31;;;;;;;3.92;1.10;;;9.50;70.70;;;;;;4097998;29;20510;-79
2023/11/18 13:41:32;;;;;;;4.33;1.27;;;9.50;71.20;;;;;;4099505;29;20047;-79
2023/11/18 13:43:44;;;;;;;2.97;1.20;;;9.60;70.90;;;;;;4100211;29;20147;-79
2023/11/18 13:45:52;;;;;;;3.15;1.40;;;9.60;70.50;;;;;;4100289;29;20059;-77
2023/11/18 13:47:57;;;;;;;3.78;1.52;;;9.60;71.30;;;;;;4099748;29;20051;-80
2023/11/18 13:49:59;;;;;;;4.57;1.42;;;9.60;71.80;;;;;;4100144;29;20142;-79
2023/11/18 13:52:02;;;;;;;3.90;1.60;;;9.60;71.50;;;;;;4099230;29;20124;-80
2023/11/18 13:54:04;;;;;;;4.15;1.58;;;9.50;71.00;;;;;;4100262;29;20137;-80
2023/11/18 13:56:09;;;;;;;4.72;1.67;;;9.50;72.10;;;;;;4100205;29;20456;-79
2023/11/18 13:58:11;;;;;;;3.40;1.50;;;9.40;71.80;;;;;;4099799;29;20055;-79
2023/11/18 14:00:16;;;;;;;4.13;1.58;;;9.40;71.80;;;;;;4100103;29;20052;-78
2023/11/18 14:02:18;;;;;;;5.07;1.60;;;9.40;72.10;;;;;;4099368;29;20105;-80
2023/11/18 14:04:20;;;;;;;3.55;1.60;;;9.40;72.30;;;;;;4100374;29;20147;-80
2023/11/18 14:06:23;;;;;;;3.20;1.48;;;9.30;73.10;;;;;;4099739;29;20603;-77
2023/11/18 14:08:24;;;;;;;4.38;1.60;;;9.30;72.80;;;;;;4100471;29;20567;-79
2023/11/18 14:10:26;;;;;;;7.82;3.90;;;9.30;72.80;;;;;;4099856;29;20059;-80
2023/11/18 14:12:29;;;;;;;8.82;5.25;;;9.30;72.50;;;;;;4099103;29;20062;-78
2023/11/18 14:14:30;;;;;;;11.65;6.25;;;9.40;72.40;;;;;;4100133;29;20067;-77
2023/11/18 14:16:32;;;;;;;21.10;12.00;;;9.40;72.00;;;;;;4099215;29;20079;-80
2023/11/18 14:18:36;;;;;;;5.88;2.45;;;9.40;71.60;;;;;;4103697;29;20058;-79
2023/11/18 14:20:38;;;;;;;5.15;1.80;;;9.30;71.10;;;;;;4103326;29;20373;-78
2023/11/18 14:22:40;;;;;;;4.13;1.88;;;9.40;70.80;;;;;;4101377;29;20059;-78
2023/11/18 14:24:42;;;;;;;4.10;1.90;;;9.40;71.00;;;;;;4102085;29;20054;-79
2023/11/18 14:26:44;;;;;;;4.13;1.67;;;9.40;71.30;;;;;;4101413;29;20115;-78
2023/11/18 14:28:47;;;;;;;5.05;2.58;;;9.40;71.10;;;;;;4101260;29;20047;-79
2023/11/18 14:30:48;;;;;;;6.82;3.40;;;9.40;71.10;;;;;;4101056;29;20507;-78
2023/11/18 14:32:50;;;;;;;5.40;2.50;;;9.40;71.10;;;;;;4100958;28;20055;-79
2023/11/18 14:34:53;;;;;;;5.57;2.50;;;9.30;70.70;;;;;;4102432;29;20130;-77
2023/11/18 14:36:56;;;;;;;5.32;2.60;;;9.30;71.60;;;;;;4101843;29;20047;-79
2023/11/18 14:38:59;;;;;;;4.13;2.22;;;9.20;72.10;;;;;;4101772;29;20424;-78
2023/11/18 14:41:00;;;;;;;4.85;2.30;;;9.20;71.90;;;;;;4102310;29;20063;-78
2023/11/18 14:43:04;;;;;;;4.13;1.98;;;9.20;72.10;;;;;;4099985;29;20110;-77
2023/11/18 14:45:08;;;;;;;4.65;2.00;;;9.20;71.90;;;;;;4100196;29;20094;-77
2023/11/18 14:47:10;;;;;;;3.90;2.20;;;9.20;71.10;;;;;;4099504;29;20066;-78
2023/11/18 14:49:12;;;;;;;4.93;2.00;;;9.20;72.00;;;;;;4099665;29;20492;-79
2023/11/18 14:51:14;;;;;;;4.50;2.17;;;9.30;71.80;;;;;;4098634;29;20048;-77
2023/11/18 14:53:16;;;;;;;4.88;1.90;;;9.20;71.50;;;;;;4099499;29;20055;-78
2023/11/18 14:55:18;;;;;;;4.50;1.52;;;9.10;71.20;;;;;;4103039;29;20099;-79
2023/11/18 14:57:19;;;;;;;5.55;1.90;;;9.10;71.00;;;;;;4103863;29;20047;-81
2023/11/18 14:59:22;;;;;;;4.57;2.28;;;9.00;71.00;;;;;;4105100;29;20070;-78
2023/11/18 15:01:26;;;;;;;3.75;2.08;;;9.00;71.50;;;;;;4104424;29;20086;-78
2023/11/18 15:03:28;;;;;;;4.18;1.70;;;9.10;71.00;;;;;;4105080;29;20130;-79
2023/11/18 15:05:30;;;;;;;4.00;1.88;;;9.10;70.60;;;;;;4104398;29;20058;-78
2023/11/18 15:07:32;;;;;;;4.22;2.00;;;9.10;70.90;;;;;;4100003;29;20485;-80
2023/11/18 15:09:35;;;;;;;5.22;1.95;;;9.00;71.20;;;;;;4098897;29;20098;-79
2023/11/18 15:11:37;;;;;;;4.18;2.17;;;9.10;70.60;;;;;;4098196;29;20107;-80
2023/11/18 15:13:39;;;;;;;4.20;1.80;;;9.00;70.90;;;;;;4098662;29;20058;-78
2023/11/18 15:15:41;;;;;;;4.03;1.80;;;9.00;71.00;;;;;;4099838;29;20560;-77
2023/11/18 15:17:46;;;;;;;4.22;2.13;;;9.10;71.60;;;;;;4097774;29;20058;-79
2023/11/18 15:19:47;;;;;;;4.60;1.73;;;9.10;71.50;;;;;;4098574;29;20047;-79
2023/11/18 15:21:52;;;;;;;4.30;1.73;;;9.10;71.10;;;;;;4097974;29;20299;-79
2023/11/18 15:23:59;;;;;;;4.32;1.70;;;9.10;70.50;;;;;;4098578;29;20401;-77
2023/11/18 15:26:01;;;;;;;3.83;1.83;;;9.10;70.60;;;;;;4098758;29;20635;-78
2023/11/18 15:28:03;;;;;;;5.05;1.60;;;9.10;70.40;;;;;;4098841;29;20059;-81
2023/11/18 15:30:10;;;;;;;4.25;1.80;;;9.10;70.80;;;;;;4097932;29;20098;-79
2023/11/18 15:32:11;;;;;;;4.55;2.15;;;9.10;70.00;;;;;;4097719;29;20055;-80
2023/11/18 15:34:15;;;;;;;4.82;1.92;;;9.10;70.00;;;;;;4098380;29;20544;-79
2023/11/18 15:36:17;;;;;;;3.80;1.40;;;9.10;70.00;;;;;;4098584;29;20057;-79
2023/11/18 15:38:20;;;;;;;3.90;1.90;;;9.10;69.30;;;;;;4097955;29;20450;-80
2023/11/18 15:40:24;;;;;;;3.75;1.40;;;9.00;69.50;;;;;;4099105;29;20055;-78
2023/11/18 15:42:28;;;;;;;3.83;1.50;;;9.10;69.10;;;;;;4097959;29;20051;-78
2023/11/18 15:44:33;;;;;;;3.42;1.40;;;9.10;68.80;;;;;;4098773;28;20485;-78
2023/11/18 15:46:37;;;;;;;4.43;1.38;;;9.10;68.60;;;;;;4098236;29;20511;-80
2023/11/18 15:48:39;;;;;;;4.93;1.60;;;9.10;68.50;;;;;;4098485;29;20062;-79
2023/11/18 15:50:41;;;;;;;3.78;1.38;;;9.10;68.40;;;;;;4098926;29;20093;-78
2023/11/18 15:52:44;;;;;;;3.42;1.20;;;9.10;67.70;;;;;;4097137;29;20061;-77
2023/11/18 15:54:46;;;;;;;3.22;1.08;;;9.10;67.00;;;;;;4096486;29;20109;-78
2023/11/18 15:56:48;;;;;;;5.20;1.42;;;9.10;66.40;;;;;;4097539;29;20051;-77
2023/11/18 15:58:50;;;;;;;4.00;1.40;;;9.10;66.60;;;;;;4097908;29;20051;-79
2023/11/18 16:00:53;;;;;;;3.50;1.30;;;9.10;66.60;;;;;;4097730;28;20551;-79
2023/11/18 16:02:57;;;;;;;3.08;1.17;;;9.10;66.40;;;;;;4093785;29;20059;-77
2023/11/18 16:04:58;;;;;;;3.60;1.20;;;9.10;66.20;;;;;;4090094;29;20082;-80
2023/11/18 16:07:01;;;;;;;3.60;1.15;;;9.10;65.80;;;;;;4092713;29;20055;-79
2023/11/18 16:09:06;;;;;;;3.33;1.10;;;9.10;65.70;;;;;;4082384;29;20063;-78
2023/11/18 16:11:10;;;;;;;3.15;1.30;;;9.10;66.00;;;;;;4095991;29;20051;-78
2023/11/18 16:13:13;;;;;;;3.47;1.30;;;9.20;65.90;;;;;;4096749;29;20082;-79
2023/11/18 16:15:16;;;;;;;4.43;1.13;;;9.10;66.70;;;;;;4087720;29;20051;-79
2023/11/18 16:17:18;;;;;;;4.55;1.45;;;9.20;66.40;;;;;;4092775;28;20051;-78
2023/11/18 16:19:21;;;;;;;6.63;1.33;;;9.20;66.80;;;;;;4097923;29;20055;-77
2023/11/18 16:21:23;;;;;;;4.25;1.50;;;9.20;67.10;;;;;;4098385;28;20055;-80
2023/11/18 16:23:29;;;;;;;3.80;1.23;;;9.20;67.30;;;;;;4097011;29;20063;-81
2023/11/18 16:25:32;;;;;;;4.40;1.38;;;9.20;67.80;;;;;;4099201;29;20082;-79
2023/11/18 16:27:34;;;;;;;4.90;1.40;;;9.10;67.60;;;;;;4098278;29;20047;-78
2023/11/18 16:29:36;;;;;;;4.28;1.52;;;9.20;66.90;;;;;;4096734;28;20515;-81
2023/11/18 16:31:38;;;;;;;4.88;1.48;;;9.10;66.70;;;;;;4096883;29;20093;-79
2023/11/18 16:33:43;;;;;;;3.67;1.35;;;9.20;66.50;;;;;;4096749;29;20109;-77
2023/11/18 16:35:45;;;;;;;4.68;1.35;;;9.20;66.20;;;;;;4098442;29;20090;-81
2023/11/18 16:37:46;;;;;;;3.42;1.20;;;9.20;66.30;;;;;;4103221;29;20040;-80
2023/11/18 16:39:51;;;;;;;4.05;1.15;;;9.20;66.30;;;;;;4099244;28;20079;-81
2023/11/18 16:41:52;;;;;;;3.20;1.15;;;9.20;65.70;;;;;;4104856;29;20079;-80
2023/11/18 16:43:54;;;;;;;3.30;1.00;;;9.20;65.70;;;;;;4102088;28;20079;-80
2023/11/18 16:45:58;;;;;;;3.70;1.00;;;9.20;65.60;;;;;;4103226;29;20059;-77
2023/11/18 16:48:00;;;;;;;4.45;1.40;;;9.20;66.20;;;;;;4102179;29;20457;-77
2023/11/18 16:50:03;;;;;;;3.05;1.08;;;9.20;65.50;;;;;;4104226;29;20043;-78
2023/11/18 16:52:06;;;;;;;3.92;1.00;;;9.20;65.40;;;;;;4098071;29;20398;-78
2023/11/18 16:54:08;;;;;;;3.17;1.05;;;9.20;65.70;;;;;;4096612;29;20051;-78
2023/11/18 16:56:11;;;;;;;4.07;1.13;;;9.20;65.60;;;;;;4097319;28;20481;-79
2023/11/18 16:58:13;;;;;;;2.72;0.95;;;9.10;65.50;;;;;;4096684;28;20477;-80